WEATHER DATA

TODAY
Time Temp. Dewp. Hum. Bar. 1h Prec. 24h Prec.
00:02 20.7 11.3 55 1021.3 0.0000 0.0000
00:13 20.7 11.3 55 1021.4 0.0000 0.0000
00:23 20.5 11.7 57 1021.4 0.0000 0.0000
00:33 20.4 11.6 57 1021.6 0.0000 0.0000
00:43 20.3 11.8 58 1021.7 0.0000 0.0000
00:53 20.4 11.3 56 1021.8 0.0000 0.0000
01:03 20.2 11.4 57 1021.9 0.0000 0.0000
01:13 19.5 11.8 61 1022 0.0000 0.0000
01:24 19 11.6 62 1021.9 0.0000 0.0000
01:33 18.9 11.2 61 1022 0.0000 0.0000
01:43 18.9 11 60 1021.9 0.0000 0.0000
01:54 19 10.8 59 1021.9 0.0000 0.0000
02:04 19.1 10.7 58 1021.9 0.0000 0.0000
02:13 19 10.8 59 1022 0.0000 0.0000
02:23 18.8 10.9 60 1022 0.0000 0.0000
02:34 18.6 10.9 61 1022 0.0000 0.0000
02:44 18.4 10.8 61 1021.9 0.0000 0.0000
02:54 18.4 10.8 61 1022 0.0000 0.0000
03:04 18.2 10.8 62 1021.9 0.0000 0.0000
03:14 17.8 10.7 63 1021.9 0.0000 0.0000
03:24 17.7 10.6 63 1021.8 0.0000 0.0000
03:34 17.9 10.5 62 1021.8 0.0000 0.0000
03:45 17.8 10.4 62 1021.8 0.0000 0.0000
03:54 17.6 10.5 63 1021.8 0.0000 0.0000
04:04 17.5 10.4 63 1021.9 0.0000 0.0000
04:15 17.1 10.2 64 1021.9 0.0000 0.0000
04:25 16.9 10.3 65 1021.8 0.0000 0.0000
04:34 16.7 10.1 65 1021.9 0.0000 0.0000
04:44 16.7 10.1 65 1021.9 0.0000 0.0000
04:55 16.6 10 65 1022 0.0000 0.0000
05:05 16.6 10 65 1022.1 0.0000 0.0000
05:15 16.7 9.9 64 1022.2 0.0000 0.0000
05:25 16.8 9.7 63 1022.3 0.0000 0.0000
05:35 16.9 9.8 63 1022.2 0.0000 0.0000
05:45 17 9.7 62 1022.3 0.0000 0.0000
05:55 17 9.7 62 1022.2 0.0000 0.0000
06:06 17 9.7 62 1022.2 0.0000 0.0000
06:15 17.3 10 62 1022.3 0.0000 0.0000
06:24 17.3 10 62 1022.4 0.0000 0.0000
06:36 17.4 10.1 62 1022.4 0.0000 0.0000
06:46 17.5 10.4 63 1022.4 0.0000 0.0000
06:55 18 10.6 62 1022.4 0.0000 0.0000
07:05 18.3 10.9 62 1022.5 0.0000 0.0000
07:16 18.9 11.2 61 1022.6 0.0000 0.0000
07:26 19.2 11.3 60 1022.6 0.0000 0.0000
07:36 19.7 11.5 59 1022.7 0.0000 0.0000
07:46 19.9 11.4 58 1022.7 0.0000 0.0000
07:56 20.1 11.6 58 1022.8 0.0000 0.0000
08:06 20.3 11.8 58 1022.8 0.0000 0.0000
08:16 20.3 12 59 1022.9 0.0000 0.0000
08:27 20.2 11.7 58 1022.9 0.0000 0.0000
08:36 20 11.8 59 1022.8 0.0000 0.0000
08:46 20.2 11.9 59 1022.9 0.0000 0.0000
08:57 20 11.8 59 1022.9 0.0000 0.0000
09:07 20.2 12.2 60 1022.8 0.0000 0.0000
09:16 20.2 12.2 60 1022.7 0.0000 0.0000
09:26 19.8 11.8 60 1022.7 0.0000 0.0000
09:37 20.1 12.4 61 1022.8 0.0000 0.0000
09:47 20.2 12.4 61 1022.8 0.0000 0.0000
09:57 20.7 12.7 60 1022.8 0.0000 0.0000
10:07 21 12.4 58 1022.8 0.0000 0.0000
10:17 21.2 12.6 58 1022.9 0.0000 0.0000
10:27 21.4 12.8 58 1022.9 0.0000 0.0000
10:37 21.4 12.8 58 1022.8 0.0000 0.0000
10:48 21.6 13 58 1022.8 0.0000 0.0000
10:57 21.7 13.1 58 1023 0.0000 0.0000
11:07 22 13.1 57 1023 0.0000 0.0000
11:18 21.9 13 57 1023.1 0.0000 0.0000
11:37 22.3 13.6 58 1023.2 0.0000 0.0000
11:47 22.2 12.7 55 1023.3 0.0000 0.0000
11:58 22.3 13.1 56 1023.2 0.0000 0.0000
12:08 22.7 13.2 55 1023.2 0.0000 0.0000
12:18 22.9 13.1 54 1023.1 0.0000 0.0000
12:28 23.1 12.7 52 1023.1 0.0000 0.0000
12:38 23.2 13.1 53 1023 0.0000 0.0000
12:48 23.5 12.8 51 1022.9 0.0000 0.0000
12:58 23.5 12.8 51 1022.8 0.0000 0.0000
13:09 23.7 13.3 52 1022.7 0.0000 0.0000
13:18 23.9 13.2 51 1022.6 0.0000 0.0000
13:28 23.8 13.1 51 1022.6 0.0000 0.0000
13:39 24 13.2 51 1022.5 0.0000 0.0000
13:49 24.2 13.4 51 1022.6 0.0000 0.0000
13:58 24.2 13.4 51 1022.6 0.0000 0.0000
14:08 24.3 13.2 50 1022.6 0.0000 0.0000
14:19 24.5 13.4 50 1022.4 0.0000 0.0000
14:29 24.7 13.3 49 1022.4 0.0000 0.0000
14:39 24.9 13.1 48 1022.2 0.0000 0.0000
14:49 25.3 13.8 49 1022.1 0.0000 0.0000
14:59 25.2 13.4 48 1022.1 0.0000 0.0000
15:09 25.3 13.2 47 1022.1 0.0000 0.0000
15:19 25.3 13.2 47 1022 0.0000 0.0000
15:30 25.5 13.7 48 1021.9 0.0000 0.0000
15:39 25.4 13.6 48 1021.9 0.0000 0.0000

DAY STATISTIC

2022-07-06
TEMPERATURE
AVERAGE
20.4
HIGH
25.5
15:30
LOW
16.6
04:55
PRESSURE
AVERAGE
1022.4
HIGH
1023.3
11:47
LOW
1021.3
00:02
DEWPOINT
AVERAGE
11.7
HIGH
13.8
14:49
LOW
9.7
05:25
HUMIDITY
AVERAGE
58
HIGH
65
04:25
LOW
47
15:09
PRECIPITATION
RAIN HOUR
0.0
RAIN DAY
0.0
TEMPERATURE (°C)
LOW
16.6
HIGH
25.5
AVERAGE
20.4
PRESSURE (hpa)
LOW
1021.3
HIGH
1023.3
AVERAGE
1022.4
DEVICE